Udo Maru — JM6522 — position and weather

sailwx.info

Track history (hours):
 
Tides and Currents Weather Stations Pressure Air Temp Water Temp Dewpoint Dewpoint Depression Visibility Wind Speed Wind Dir Waves Ship Positions

Udo Maru

Last reported at 2014-Nov-20 21:10 UTC. Time now 2014-Nov-23 03:01 UTC.
Position N 33°55' E 135°01'.

Length 87 m; draft 4.9 m.

Type: Ship (hazmat cat A). MMSI: 431600499.

Date/timePositionNaut miles runAvg speedWind from/ knotsBaromVisibWave heightAir tempDewpointWater temp
2014-Nov-20 21:10N 33°55' E 135°01'711.2
2014-Nov-20 20:33N 34°02' E 135°00'1111.2
2014-Nov-20 19:33N 34°13' E 134°59'1111.0
2014-Nov-20 18:33N 34°24' E 135°00'1111.2
2014-Nov-20 17:33N 34°35' E 135°03'  
2014-Nov-17 20:11N 34°38' E 134°51'812.7
2014-Nov-17 19:32N 34°38' E 135°01'1010.1
2014-Nov-17 18:33N 34°28' E 135°03'1211.3
2014-Nov-17 17:31N 34°16' E 134°59'1010.8
2014-Nov-17 16:33N 34°06' E 135°00'245 9.1
2014-Nov-16 13:33N 35°17' E 139°45'9 8.8
2014-Nov-16 12:33N 35°25' E 139°46'6 5.8
2014-Nov-16 11:33N 35°22' E 139°51'0 0.0
2014-Nov-16 10:33N 35°22' E 139°51'0 0.0
2014-Nov-16 09:33N 35°22' E 139°51'0 0.0
2014-Nov-16 08:33N 35°22' E 139°51'0 0.0
2014-Nov-16 07:33N 35°22' E 139°51'0 0.0
2014-Nov-16 06:33N 35°22' E 139°51'0 0.0
2014-Nov-16 05:33N 35°22' E 139°51'0 0.0
2014-Nov-16 04:30N 35°22' E 139°51'5 4.9
2014-Nov-16 03:33N 35°26' E 139°50'6 0.4
2014-Nov-15 11:33N 35°31' E 139°54'1111.0
2014-Nov-15 10:33N 35°26' E 139°42'3 3.1
2014-Nov-15 09:31N 35°29' E 139°39'0 0.0
2014-Nov-15 08:31N 35°29' E 139°39'0 0.1
2014-Nov-15 07:33N 35°29' E 139°39'3 2.6
2014-Nov-15 06:33N 35°27' E 139°42'4 3.6
2014-Nov-15 05:33N 35°24' E 139°45'8 7.8
2014-Nov-15 04:33N 35°16' E 139°46'1110.5
2014-Nov-15 03:29N 35°05' E 139°43'24210.1
2014-Nov-14 03:29N 33°58' E 135°01'1011.2
2014-Nov-14 02:34N 34°09' E 134°60'1111.0
2014-Nov-14 01:33N 34°20' E 134°59'1111.2
2014-Nov-14 00:33N 34°31' E 135°02'8 7.3
2014-Nov-13 23:29N 34°35' E 134°54'1 0.0
2014-Nov-12 04:32N 34°35' E 134°54'1010.2
2014-Nov-12 03:33N 34°33' E 135°05'1313.0
2014-Nov-12 02:33N 34°21' E 135°01'1313.2
2014-Nov-12 01:33N 34°07' E 135°00'  
Track history (hours):
 
Tides and Currents Weather Stations Pressure Air Temp Water Temp Dewpoint Dewpoint Depression Visibility Wind Speed Wind Dir Waves Ship Positions

Udo Maru

Last reported at 2014-Nov-20 21:10 UTC. Time now 2014-Nov-23 03:01 UTC.
Position N 33°55' E 135°01'.

Length 87 m; draft 4.9 m.

Type: Ship (hazmat cat A). MMSI: 431600499.

Date/timePositionNaut miles runAvg speedWind from/ knotsBaromVisibWave heightAir tempDewpointWater temp
2014-Nov-20 21:10N 33°55' E 135°01'711.2
2014-Nov-20 20:33N 34°02' E 135°00'1111.2
2014-Nov-20 19:33N 34°13' E 134°59'1111.0
2014-Nov-20 18:33N 34°24' E 135°00'1111.2
2014-Nov-20 17:33N 34°35' E 135°03'  
2014-Nov-17 20:11N 34°38' E 134°51'812.7
2014-Nov-17 19:32N 34°38' E 135°01'1010.1
2014-Nov-17 18:33N 34°28' E 135°03'1211.3
2014-Nov-17 17:31N 34°16' E 134°59'1010.8
2014-Nov-17 16:33N 34°06' E 135°00'245 9.1
2014-Nov-16 13:33N 35°17' E 139°45'9 8.8
2014-Nov-16 12:33N 35°25' E 139°46'6 5.8
2014-Nov-16 11:33N 35°22' E 139°51'0 0.0
2014-Nov-16 10:33N 35°22' E 139°51'0 0.0
2014-Nov-16 09:33N 35°22' E 139°51'0 0.0
2014-Nov-16 08:33N 35°22' E 139°51'0 0.0
2014-Nov-16 07:33N 35°22' E 139°51'0 0.0
2014-Nov-16 06:33N 35°22' E 139°51'0 0.0
2014-Nov-16 05:33N 35°22' E 139°51'0 0.0
2014-Nov-16 04:30N 35°22' E 139°51'5 4.9
2014-Nov-16 03:33N 35°26' E 139°50'6 0.4
2014-Nov-15 11:33N 35°31' E 139°54'1111.0
2014-Nov-15 10:33N 35°26' E 139°42'3 3.1
2014-Nov-15 09:31N 35°29' E 139°39'0 0.0
2014-Nov-15 08:31N 35°29' E 139°39'0 0.1
2014-Nov-15 07:33N 35°29' E 139°39'3 2.6
2014-Nov-15 06:33N 35°27' E 139°42'4 3.6
2014-Nov-15 05:33N 35°24' E 139°45'8 7.8
2014-Nov-15 04:33N 35°16' E 139°46'1110.5
2014-Nov-15 03:29N 35°05' E 139°43'24210.1
2014-Nov-14 03:29N 33°58' E 135°01'1011.2
2014-Nov-14 02:34N 34°09' E 134°60'1111.0
2014-Nov-14 01:33N 34°20' E 134°59'1111.2
2014-Nov-14 00:33N 34°31' E 135°02'8 7.3
2014-Nov-13 23:29N 34°35' E 134°54'1 0.0
2014-Nov-12 04:32N 34°35' E 134°54'1010.2
2014-Nov-12 03:33N 34°33' E 135°05'1313.0
2014-Nov-12 02:33N 34°21' E 135°01'1313.2
2014-Nov-12 01:33N 34°07' E 135°00'  

Dump ship's entire track history